CheckWX is a tool to help pilots better visualize weather data.  It is not intended as a substitute for an official pre-flight weather briefing.

03:11:49 UTC

KDLZ METAR
Delaware Municipal - Jim Moore Field Airport
Delaware, Ohio, USA
Current

17 mins ago

KDLZ 240255Z AUTO 00000KT 10SM SCT110 02/M03 A3027 RMK AO2
Observed
Mar-24 @ 02:55 UTC
Visibility
10 SM
Flight Rules
VFR
Cloud Levels
  • Scattered at 11,000' AGL
Temperature
C / 36°F
Dewpoint
-3°C / 27°F
Humidity
70%
Altimeter
30.27" Hg
Pressure
1025.02 hPa
Previous

37 mins ago

KDLZ 240235Z AUTO 00000KT 10SM SCT110 02/M02 A3027 RMK AO2
Observed
Mar-24 @ 02:35 UTC
Visibility
10 SM
Flight Rules
VFR
Cloud Levels
  • Scattered at 11,000' AGL
Temperature
C / 36°F
Dewpoint
-2°C / 28°F
Humidity
75%
Altimeter
30.27" Hg
Pressure
1025.02 hPa
Previous

57 mins ago

KDLZ 240215Z AUTO 00000KT 10SM CLR 02/M01 A3028 RMK AO2
Observed
Mar-24 @ 02:15 UTC
Visibility
10 SM
Flight Rules
VFR
Cloud Levels
  • Clear skies
Temperature
C / 36°F
Dewpoint
-1°C / 30°F
Humidity
81%
Altimeter
30.28" Hg
Pressure
1025.42 hPa